sensor_id;sensor_type;location;lat;lon;timestamp;P1;durP1;ratioP1;P2;durP2;ratioP2
4508;SDS011;2267;48.816;9.230;2023-03-13T00:01:10;7.93;;;7.07;;
4508;SDS011;2267;48.816;9.230;2023-03-13T00:03:37;9.43;;;6.10;;
4508;SDS011;2267;48.816;9.230;2023-03-13T00:06:04;12.57;;;7.63;;
4508;SDS011;2267;48.816;9.230;2023-03-13T00:08:30;15.60;;;8.13;;
4508;SDS011;2267;48.816;9.230;2023-03-13T00:11:00;9.97;;;7.27;;
4508;SDS011;2267;48.816;9.230;2023-03-13T00:13:28;10.27;;;7.40;;
4508;SDS011;2267;48.816;9.230;2023-03-13T00:16:05;12.30;;;7.57;;
4508;SDS011;2267;48.816;9.230;2023-03-13T00:18:35;10.07;;;7.43;;
4508;SDS011;2267;48.816;9.230;2023-03-13T00:21:06;10.27;;;7.67;;
4508;SDS011;2267;48.816;9.230;2023-03-13T00:23:34;11.37;;;6.83;;
4508;SDS011;2267;48.816;9.230;2023-03-13T00:26:06;9.90;;;6.47;;
4508;SDS011;2267;48.816;9.230;2023-03-13T00:28:36;8.57;;;6.60;;
4508;SDS011;2267;48.816;9.230;2023-03-13T00:31:04;11.70;;;8.00;;
4508;SDS011;2267;48.816;9.230;2023-03-13T00:33:40;12.53;;;7.33;;
4508;SDS011;2267;48.816;9.230;2023-03-13T00:36:09;8.47;;;6.70;;
4508;SDS011;2267;48.816;9.230;2023-03-13T00:38:44;9.10;;;6.97;;
4508;SDS011;2267;48.816;9.230;2023-03-13T00:41:12;9.67;;;7.83;;
4508;SDS011;2267;48.816;9.230;2023-03-13T00:43:41;13.83;;;8.50;;
4508;SDS011;2267;48.816;9.230;2023-03-13T00:46:10;13.37;;;8.73;;
4508;SDS011;2267;48.816;9.230;2023-03-13T00:48:37;10.07;;;8.43;;
4508;SDS011;2267;48.816;9.230;2023-03-13T00:51:05;12.33;;;8.53;;
4508;SDS011;2267;48.816;9.230;2023-03-13T00:53:33;12.53;;;8.17;;
4508;SDS011;2267;48.816;9.230;2023-03-13T00:56:04;12.47;;;8.30;;
4508;SDS011;2267;48.816;9.230;2023-03-13T00:58:33;8.23;;;7.03;;
4508;SDS011;2267;48.816;9.230;2023-03-13T01:03:34;8.90;;;6.07;;
4508;SDS011;2267;48.816;9.230;2023-03-13T01:06:04;11.00;;;6.73;;
4508;SDS011;2267;48.816;9.230;2023-03-13T01:08:33;10.50;;;7.70;;
4508;SDS011;2267;48.816;9.230;2023-03-13T01:11:00;9.97;;;7.07;;
4508;SDS011;2267;48.816;9.230;2023-03-13T01:13:29;11.83;;;7.20;;
4508;SDS011;2267;48.816;9.230;2023-03-13T01:16:05;11.27;;;7.47;;
4508;SDS011;2267;48.816;9.230;2023-03-13T01:18:38;9.47;;;6.83;;
4508;SDS011;2267;48.816;9.230;2023-03-13T01:21:07;12.23;;;7.70;;
4508;SDS011;2267;48.816;9.230;2023-03-13T01:23:34;10.57;;;7.40;;
4508;SDS011;2267;48.816;9.230;2023-03-13T01:26:02;11.60;;;7.37;;
4508;SDS011;2267;48.816;9.230;2023-03-13T01:28:30;11.50;;;7.90;;
4508;SDS011;2267;48.816;9.230;2023-03-13T01:30:58;11.70;;;7.93;;
4508;SDS011;2267;48.816;9.230;2023-03-13T01:33:25;11.73;;;7.60;;
4508;SDS011;2267;48.816;9.230;2023-03-13T01:35:52;10.90;;;7.10;;
4508;SDS011;2267;48.816;9.230;2023-03-13T01:38:26;13.83;;;7.70;;
4508;SDS011;2267;48.816;9.230;2023-03-13T01:40:53;13.30;;;7.23;;
4508;SDS011;2267;48.816;9.230;2023-03-13T01:43:21;12.43;;;7.43;;
4508;SDS011;2267;48.816;9.230;2023-03-13T01:46:03;11.03;;;7.97;;
4508;SDS011;2267;48.816;9.230;2023-03-13T01:48:33;11.87;;;7.07;;
4508;SDS011;2267;48.816;9.230;2023-03-13T01:51:06;9.57;;;6.60;;
4508;SDS011;2267;48.816;9.230;2023-03-13T01:53:37;14.00;;;7.33;;
4508;SDS011;2267;48.816;9.230;2023-03-13T01:56:10;12.37;;;7.17;;
4508;SDS011;2267;48.816;9.230;2023-03-13T01:58:42;11.13;;;6.27;;
4508;SDS011;2267;48.816;9.230;2023-03-13T02:01:09;9.33;;;6.60;;
4508;SDS011;2267;48.816;9.230;2023-03-13T02:03:37;11.90;;;7.57;;
4508;SDS011;2267;48.816;9.230;2023-03-13T02:06:04;11.97;;;6.40;;
4508;SDS011;2267;48.816;9.230;2023-03-13T02:08:37;9.77;;;5.60;;
4508;SDS011;2267;48.816;9.230;2023-03-13T02:13:50;11.93;;;5.97;;
4508;SDS011;2267;48.816;9.230;2023-03-13T02:16:19;8.47;;;5.30;;
4508;SDS011;2267;48.816;9.230;2023-03-13T02:18:47;11.57;;;6.20;;
4508;SDS011;2267;48.816;9.230;2023-03-13T02:26:46;8.10;;;4.90;;
4508;SDS011;2267;48.816;9.230;2023-03-13T02:29:13;11.27;;;5.67;;
4508;SDS011;2267;48.816;9.230;2023-03-13T02:31:46;10.73;;;5.87;;
4508;SDS011;2267;48.816;9.230;2023-03-13T02:34:14;10.47;;;5.40;;
4508;SDS011;2267;48.816;9.230;2023-03-13T02:36:45;7.43;;;4.87;;
4508;SDS011;2267;48.816;9.230;2023-03-13T02:39:13;7.23;;;4.60;;
4508;SDS011;2267;48.816;9.230;2023-03-13T02:41:43;7.57;;;4.13;;
4508;SDS011;2267;48.816;9.230;2023-03-13T02:44:12;7.50;;;5.03;;
4508;SDS011;2267;48.816;9.230;2023-03-13T02:46:42;12.20;;;5.33;;
4508;SDS011;2267;48.816;9.230;2023-03-13T02:49:27;7.73;;;4.80;;
4508;SDS011;2267;48.816;9.230;2023-03-13T02:54:44;6.33;;;3.70;;
4508;SDS011;2267;48.816;9.230;2023-03-13T02:57:14;8.30;;;5.13;;
4508;SDS011;2267;48.816;9.230;2023-03-13T02:59:41;7.03;;;4.30;;
4508;SDS011;2267;48.816;9.230;2023-03-13T03:02:08;6.67;;;3.90;;
4508;SDS011;2267;48.816;9.230;2023-03-13T03:04:34;6.33;;;3.80;;
4508;SDS011;2267;48.816;9.230;2023-03-13T03:07:01;7.47;;;3.83;;
4508;SDS011;2267;48.816;9.230;2023-03-13T03:09:28;8.47;;;5.00;;
4508;SDS011;2267;48.816;9.230;2023-03-13T03:11:55;7.50;;;4.03;;
4508;SDS011;2267;48.816;9.230;2023-03-13T03:14:21;6.77;;;3.80;;
4508;SDS011;2267;48.816;9.230;2023-03-13T03:16:48;6.10;;;4.60;;
4508;SDS011;2267;48.816;9.230;2023-03-13T03:19:15;5.27;;;3.90;;
4508;SDS011;2267;48.816;9.230;2023-03-13T03:21:42;8.30;;;4.27;;
4508;SDS011;2267;48.816;9.230;2023-03-13T03:24:09;6.40;;;3.70;;
4508;SDS011;2267;48.816;9.230;2023-03-13T03:26:36;6.80;;;4.13;;
4508;SDS011;2267;48.816;9.230;2023-03-13T03:29:03;6.10;;;3.60;;
4508;SDS011;2267;48.816;9.230;2023-03-13T03:31:30;5.97;;;3.93;;
4508;SDS011;2267;48.816;9.230;2023-03-13T03:33:57;7.60;;;4.20;;
4508;SDS011;2267;48.816;9.230;2023-03-13T03:36:24;4.57;;;2.80;;
4508;SDS011;2267;48.816;9.230;2023-03-13T03:38:51;7.40;;;3.90;;
4508;SDS011;2267;48.816;9.230;2023-03-13T03:41:18;4.93;;;3.30;;
4508;SDS011;2267;48.816;9.230;2023-03-13T03:43:46;4.53;;;3.57;;
4508;SDS011;2267;48.816;9.230;2023-03-13T03:46:13;5.17;;;3.47;;
4508;SDS011;2267;48.816;9.230;2023-03-13T03:48:40;4.30;;;3.10;;
4508;SDS011;2267;48.816;9.230;2023-03-13T03:51:07;3.50;;;2.90;;
4508;SDS011;2267;48.816;9.230;2023-03-13T03:53:34;4.70;;;2.80;;
4508;SDS011;2267;48.816;9.230;2023-03-13T03:56:01;5.60;;;2.90;;
4508;SDS011;2267;48.816;9.230;2023-03-13T03:58:28;3.60;;;2.60;;
4508;SDS011;2267;48.816;9.230;2023-03-13T04:00:55;3.23;;;2.30;;
4508;SDS011;2267;48.816;9.230;2023-03-13T04:03:23;4.83;;;3.43;;
4508;SDS011;2267;48.816;9.230;2023-03-13T04:05:50;4.80;;;3.27;;
4508;SDS011;2267;48.816;9.230;2023-03-13T04:08:17;3.67;;;3.00;;
4508;SDS011;2267;48.816;9.230;2023-03-13T04:10:44;6.33;;;4.03;;
4508;SDS011;2267;48.816;9.230;2023-03-13T04:13:11;4.73;;;3.10;;
4508;SDS011;2267;48.816;9.230;2023-03-13T04:15:38;5.67;;;2.83;;
4508;SDS011;2267;48.816;9.230;2023-03-13T04:18:05;5.23;;;3.60;;
4508;SDS011;2267;48.816;9.230;2023-03-13T04:20:32;3.37;;;2.33;;
4508;SDS011;2267;48.816;9.230;2023-03-13T04:22:59;4.33;;;2.60;;
4508;SDS011;2267;48.816;9.230;2023-03-13T04:25:26;4.73;;;2.10;;
4508;SDS011;2267;48.816;9.230;2023-03-13T04:27:53;3.03;;;1.60;;
4508;SDS011;2267;48.816;9.230;2023-03-13T04:30:19;2.90;;;2.10;;
4508;SDS011;2267;48.816;9.230;2023-03-13T04:32:46;2.47;;;1.43;;
4508;SDS011;2267;48.816;9.230;2023-03-13T04:35:13;2.23;;;1.67;;
4508;SDS011;2267;48.816;9.230;2023-03-13T04:37:40;3.67;;;1.50;;
4508;SDS011;2267;48.816;9.230;2023-03-13T04:40:07;2.13;;;1.30;;
4508;SDS011;2267;48.816;9.230;2023-03-13T04:42:34;2.13;;;1.30;;
4508;SDS011;2267;48.816;9.230;2023-03-13T04:45:01;2.10;;;1.30;;
4508;SDS011;2267;48.816;9.230;2023-03-13T04:47:28;2.47;;;1.10;;
4508;SDS011;2267;48.816;9.230;2023-03-13T04:49:54;1.90;;;1.40;;
4508;SDS011;2267;48.816;9.230;2023-03-13T04:52:21;2.37;;;1.50;;
4508;SDS011;2267;48.816;9.230;2023-03-13T04:54:48;1.80;;;1.20;;
4508;SDS011;2267;48.816;9.230;2023-03-13T04:57:16;3.17;;;1.60;;
4508;SDS011;2267;48.816;9.230;2023-03-13T04:59:43;2.50;;;1.63;;
4508;SDS011;2267;48.816;9.230;2023-03-13T05:02:13;2.83;;;1.50;;
4508;SDS011;2267;48.816;9.230;2023-03-13T05:04:39;1.53;;;1.30;;
4508;SDS011;2267;48.816;9.230;2023-03-13T05:07:06;2.53;;;1.40;;
4508;SDS011;2267;48.816;9.230;2023-03-13T05:09:33;2.37;;;1.10;;
4508;SDS011;2267;48.816;9.230;2023-03-13T05:12:00;2.67;;;1.40;;
4508;SDS011;2267;48.816;9.230;2023-03-13T05:14:26;2.07;;;1.27;;
4508;SDS011;2267;48.816;9.230;2023-03-13T05:16:53;2.00;;;1.20;;
4508;SDS011;2267;48.816;9.230;2023-03-13T05:19:20;1.70;;;1.00;;
4508;SDS011;2267;48.816;9.230;2023-03-13T05:21:47;3.17;;;1.60;;
4508;SDS011;2267;48.816;9.230;2023-03-13T05:24:13;2.43;;;1.27;;
4508;SDS011;2267;48.816;9.230;2023-03-13T05:26:40;2.00;;;1.20;;
4508;SDS011;2267;48.816;9.230;2023-03-13T05:29:07;2.33;;;1.30;;
4508;SDS011;2267;48.816;9.230;2023-03-13T05:31:34;2.50;;;1.30;;
4508;SDS011;2267;48.816;9.230;2023-03-13T05:34:00;1.67;;;1.20;;
4508;SDS011;2267;48.816;9.230;2023-03-13T05:36:27;1.80;;;1.47;;
4508;SDS011;2267;48.816;9.230;2023-03-13T05:38:54;2.10;;;1.17;;
4508;SDS011;2267;48.816;9.230;2023-03-13T05:41:21;3.07;;;1.40;;
4508;SDS011;2267;48.816;9.230;2023-03-13T05:43:48;2.00;;;1.17;;
4508;SDS011;2267;48.816;9.230;2023-03-13T05:46:14;3.47;;;1.30;;
4508;SDS011;2267;48.816;9.230;2023-03-13T05:48:41;2.33;;;1.30;;
4508;SDS011;2267;48.816;9.230;2023-03-13T05:51:10;2.70;;;1.47;;
4508;SDS011;2267;48.816;9.230;2023-03-13T05:53:37;2.23;;;1.40;;
4508;SDS011;2267;48.816;9.230;2023-03-13T05:56:04;1.90;;;1.20;;
4508;SDS011;2267;48.816;9.230;2023-03-13T05:58:31;2.27;;;1.40;;
4508;SDS011;2267;48.816;9.230;2023-03-13T06:00:58;1.60;;;1.10;;
4508;SDS011;2267;48.816;9.230;2023-03-13T06:03:25;1.83;;;1.30;;
4508;SDS011;2267;48.816;9.230;2023-03-13T06:05:56;2.23;;;1.27;;
4508;SDS011;2267;48.816;9.230;2023-03-13T06:08:24;2.30;;;1.63;;
4508;SDS011;2267;48.816;9.230;2023-03-13T06:10:51;2.20;;;1.20;;
4508;SDS011;2267;48.816;9.230;2023-03-13T06:13:17;2.43;;;1.30;;
4508;SDS011;2267;48.816;9.230;2023-03-13T06:15:52;2.20;;;1.10;;
4508;SDS011;2267;48.816;9.230;2023-03-13T06:18:23;2.17;;;1.20;;
4508;SDS011;2267;48.816;9.230;2023-03-13T06:20:55;2.33;;;1.10;;
4508;SDS011;2267;48.816;9.230;2023-03-13T06:23:26;1.70;;;1.30;;
4508;SDS011;2267;48.816;9.230;2023-03-13T06:25:53;2.30;;;1.20;;
4508;SDS011;2267;48.816;9.230;2023-03-13T06:28:20;1.80;;;1.07;;
4508;SDS011;2267;48.816;9.230;2023-03-13T06:30:47;1.80;;;1.20;;
4508;SDS011;2267;48.816;9.230;2023-03-13T06:33:14;2.33;;;1.03;;
4508;SDS011;2267;48.816;9.230;2023-03-13T06:35:41;2.57;;;1.17;;
4508;SDS011;2267;48.816;9.230;2023-03-13T06:38:22;2.20;;;1.00;;
4508;SDS011;2267;48.816;9.230;2023-03-13T06:40:49;1.80;;;1.10;;
4508;SDS011;2267;48.816;9.230;2023-03-13T06:43:16;1.70;;;1.00;;
4508;SDS011;2267;48.816;9.230;2023-03-13T06:45:43;1.70;;;1.00;;
4508;SDS011;2267;48.816;9.230;2023-03-13T06:48:10;1.73;;;1.03;;
4508;SDS011;2267;48.816;9.230;2023-03-13T06:50:37;1.90;;;1.00;;
4508;SDS011;2267;48.816;9.230;2023-03-13T06:53:04;1.73;;;1.10;;
4508;SDS011;2267;48.816;9.230;2023-03-13T06:55:31;2.97;;;1.40;;
4508;SDS011;2267;48.816;9.230;2023-03-13T06:57:58;3.60;;;1.20;;
4508;SDS011;2267;48.816;9.230;2023-03-13T07:00:25;2.27;;;1.00;;
4508;SDS011;2267;48.816;9.230;2023-03-13T07:02:52;1.70;;;1.10;;
4508;SDS011;2267;48.816;9.230;2023-03-13T07:05:19;2.10;;;1.20;;
4508;SDS011;2267;48.816;9.230;2023-03-13T07:07:46;1.87;;;1.10;;
4508;SDS011;2267;48.816;9.230;2023-03-13T07:10:12;2.00;;;1.30;;
4508;SDS011;2267;48.816;9.230;2023-03-13T07:12:39;2.03;;;1.13;;
4508;SDS011;2267;48.816;9.230;2023-03-13T07:15:06;2.03;;;1.33;;
4508;SDS011;2267;48.816;9.230;2023-03-13T07:17:33;1.50;;;1.00;;
4508;SDS011;2267;48.816;9.230;2023-03-13T07:20:00;2.87;;;1.30;;
4508;SDS011;2267;48.816;9.230;2023-03-13T07:22:28;1.80;;;1.20;;
4508;SDS011;2267;48.816;9.230;2023-03-13T07:24:55;1.80;;;1.00;;
4508;SDS011;2267;48.816;9.230;2023-03-13T07:27:22;1.83;;;1.10;;
4508;SDS011;2267;48.816;9.230;2023-03-13T07:29:48;1.67;;;1.20;;
4508;SDS011;2267;48.816;9.230;2023-03-13T07:32:15;2.37;;;1.23;;
4508;SDS011;2267;48.816;9.230;2023-03-13T07:34:42;1.77;;;1.20;;
4508;SDS011;2267;48.816;9.230;2023-03-13T07:37:13;2.27;;;1.20;;
4508;SDS011;2267;48.816;9.230;2023-03-13T07:39:41;1.40;;;1.00;;
4508;SDS011;2267;48.816;9.230;2023-03-13T07:42:11;2.77;;;1.50;;
4508;SDS011;2267;48.816;9.230;2023-03-13T07:44:38;1.90;;;1.23;;
4508;SDS011;2267;48.816;9.230;2023-03-13T07:47:05;2.40;;;1.30;;
4508;SDS011;2267;48.816;9.230;2023-03-13T07:49:32;1.70;;;1.50;;
4508;SDS011;2267;48.816;9.230;2023-03-13T07:52:04;2.20;;;1.40;;
4508;SDS011;2267;48.816;9.230;2023-03-13T07:54:31;2.07;;;1.13;;
4508;SDS011;2267;48.816;9.230;2023-03-13T07:56:57;1.60;;;1.17;;
4508;SDS011;2267;48.816;9.230;2023-03-13T07:59:24;1.50;;;0.90;;
4508;SDS011;2267;48.816;9.230;2023-03-13T08:01:51;1.80;;;1.07;;
4508;SDS011;2267;48.816;9.230;2023-03-13T08:04:18;1.70;;;1.20;;
4508;SDS011;2267;48.816;9.230;2023-03-13T08:06:45;2.43;;;1.33;;
4508;SDS011;2267;48.816;9.230;2023-03-13T08:09:12;1.70;;;1.17;;
4508;SDS011;2267;48.816;9.230;2023-03-13T08:11:38;1.70;;;1.20;;
4508;SDS011;2267;48.816;9.230;2023-03-13T08:14:06;2.07;;;1.37;;
4508;SDS011;2267;48.816;9.230;2023-03-13T08:16:33;3.30;;;1.40;;
4508;SDS011;2267;48.816;9.230;2023-03-13T08:19:01;2.67;;;1.50;;
4508;SDS011;2267;48.816;9.230;2023-03-13T08:21:32;2.33;;;1.93;;
4508;SDS011;2267;48.816;9.230;2023-03-13T08:24:01;2.53;;;1.57;;
4508;SDS011;2267;48.816;9.230;2023-03-13T08:26:32;1.70;;;1.00;;
4508;SDS011;2267;48.816;9.230;2023-03-13T08:29:02;2.40;;;1.30;;
4508;SDS011;2267;48.816;9.230;2023-03-13T08:31:32;3.20;;;1.30;;
4508;SDS011;2267;48.816;9.230;2023-03-13T08:34:10;2.10;;;1.30;;
4508;SDS011;2267;48.816;9.230;2023-03-13T08:36:37;1.90;;;1.40;;
4508;SDS011;2267;48.816;9.230;2023-03-13T08:39:06;1.90;;;1.30;;
4508;SDS011;2267;48.816;9.230;2023-03-13T08:41:37;1.97;;;1.40;;
4508;SDS011;2267;48.816;9.230;2023-03-13T08:44:06;3.20;;;1.43;;
4508;SDS011;2267;48.816;9.230;2023-03-13T08:46:35;2.90;;;1.27;;
4508;SDS011;2267;48.816;9.230;2023-03-13T08:49:04;2.43;;;1.43;;
4508;SDS011;2267;48.816;9.230;2023-03-13T08:51:32;2.30;;;1.50;;
4508;SDS011;2267;48.816;9.230;2023-03-13T08:53:59;1.90;;;1.20;;
4508;SDS011;2267;48.816;9.230;2023-03-13T08:56:27;2.30;;;1.40;;
4508;SDS011;2267;48.816;9.230;2023-03-13T08:58:58;1.70;;;1.30;;
4508;SDS011;2267;48.816;9.230;2023-03-13T09:01:30;1.80;;;1.30;;
4508;SDS011;2267;48.816;9.230;2023-03-13T09:03:59;1.70;;;1.30;;
4508;SDS011;2267;48.816;9.230;2023-03-13T09:06:29;2.00;;;1.40;;
4508;SDS011;2267;48.816;9.230;2023-03-13T09:08:57;2.23;;;1.50;;
4508;SDS011;2267;48.816;9.230;2023-03-13T09:11:24;2.23;;;1.30;;
4508;SDS011;2267;48.816;9.230;2023-03-13T09:13:51;2.70;;;1.23;;
4508;SDS011;2267;48.816;9.230;2023-03-13T09:16:21;2.00;;;1.20;;
4508;SDS011;2267;48.816;9.230;2023-03-13T09:18:49;3.70;;;1.67;;
4508;SDS011;2267;48.816;9.230;2023-03-13T09:21:17;1.70;;;1.30;;
4508;SDS011;2267;48.816;9.230;2023-03-13T09:23:49;3.03;;;1.50;;
4508;SDS011;2267;48.816;9.230;2023-03-13T09:26:17;3.47;;;1.40;;
4508;SDS011;2267;48.816;9.230;2023-03-13T09:28:48;2.03;;;1.63;;
4508;SDS011;2267;48.816;9.230;2023-03-13T09:31:17;4.80;;;1.80;;
4508;SDS011;2267;48.816;9.230;2023-03-13T09:33:46;2.23;;;1.60;;
4508;SDS011;2267;48.816;9.230;2023-03-13T09:36:14;3.10;;;1.47;;
4508;SDS011;2267;48.816;9.230;2023-03-13T09:38:46;4.03;;;1.60;;
4508;SDS011;2267;48.816;9.230;2023-03-13T09:41:19;3.23;;;1.50;;
4508;SDS011;2267;48.816;9.230;2023-03-13T09:46:37;2.67;;;1.43;;
4508;SDS011;2267;48.816;9.230;2023-03-13T09:51:38;2.77;;;1.80;;
4508;SDS011;2267;48.816;9.230;2023-03-13T09:57:27;3.80;;;2.03;;
4508;SDS011;2267;48.816;9.230;2023-03-13T10:00:06;2.77;;;1.40;;
4508;SDS011;2267;48.816;9.230;2023-03-13T10:02:43;2.27;;;1.53;;
4508;SDS011;2267;48.816;9.230;2023-03-13T10:05:21;4.63;;;1.37;;
4508;SDS011;2267;48.816;9.230;2023-03-13T10:07:50;4.20;;;1.60;;
4508;SDS011;2267;48.816;9.230;2023-03-13T10:10:38;3.97;;;1.47;;
4508;SDS011;2267;48.816;9.230;2023-03-13T10:13:12;3.87;;;1.80;;
4508;SDS011;2267;48.816;9.230;2023-03-13T10:15:52;2.93;;;1.63;;
4508;SDS011;2267;48.816;9.230;2023-03-13T10:18:22;2.63;;;1.70;;
4508;SDS011;2267;48.816;9.230;2023-03-13T10:20:50;2.87;;;1.90;;
4508;SDS011;2267;48.816;9.230;2023-03-13T10:26:04;6.80;;;2.50;;
4508;SDS011;2267;48.816;9.230;2023-03-13T10:28:34;3.70;;;2.07;;
4508;SDS011;2267;48.816;9.230;2023-03-13T10:31:10;3.30;;;1.80;;
4508;SDS011;2267;48.816;9.230;2023-03-13T10:33:45;5.00;;;2.10;;
4508;SDS011;2267;48.816;9.230;2023-03-13T10:36:12;4.50;;;2.00;;
4508;SDS011;2267;48.816;9.230;2023-03-13T10:38:50;2.37;;;1.53;;
4508;SDS011;2267;48.816;9.230;2023-03-13T10:44:04;3.97;;;1.90;;
4508;SDS011;2267;48.816;9.230;2023-03-13T10:46:34;3.97;;;1.70;;
4508;SDS011;2267;48.816;9.230;2023-03-13T10:49:12;2.50;;;1.63;;
4508;SDS011;2267;48.816;9.230;2023-03-13T10:51:45;2.97;;;1.83;;
4508;SDS011;2267;48.816;9.230;2023-03-13T10:54:15;2.20;;;1.50;;
4508;SDS011;2267;48.816;9.230;2023-03-13T10:56:47;5.77;;;1.60;;
4508;SDS011;2267;48.816;9.230;2023-03-13T10:59:25;4.37;;;2.03;;
4508;SDS011;2267;48.816;9.230;2023-03-13T11:01:52;3.97;;;1.90;;
4508;SDS011;2267;48.816;9.230;2023-03-13T11:04:29;2.00;;;1.57;;
4508;SDS011;2267;48.816;9.230;2023-03-13T11:07:18;4.70;;;1.90;;
4508;SDS011;2267;48.816;9.230;2023-03-13T11:09:57;2.50;;;2.03;;
4508;SDS011;2267;48.816;9.230;2023-03-13T11:12:25;2.47;;;1.73;;
4508;SDS011;2267;48.816;9.230;2023-03-13T11:14:56;2.33;;;1.67;;
4508;SDS011;2267;48.816;9.230;2023-03-13T11:25:26;3.03;;;2.00;;
4508;SDS011;2267;48.816;9.230;2023-03-13T11:36:46;3.30;;;1.97;;
4508;SDS011;2267;48.816;9.230;2023-03-13T11:39:42;4.63;;;1.87;;
4508;SDS011;2267;48.816;9.230;2023-03-13T11:47:39;2.70;;;1.60;;
4508;SDS011;2267;48.816;9.230;2023-03-13T11:50:46;2.10;;;1.53;;
4508;SDS011;2267;48.816;9.230;2023-03-13T11:57:06;3.40;;;1.50;;
4508;SDS011;2267;48.816;9.230;2023-03-13T12:02:01;2.80;;;1.40;;
4508;SDS011;2267;48.816;9.230;2023-03-13T12:04:44;3.70;;;1.90;;
4508;SDS011;2267;48.816;9.230;2023-03-13T12:12:32;2.57;;;1.93;;
4508;SDS011;2267;48.816;9.230;2023-03-13T12:17:45;3.70;;;1.60;;
4508;SDS011;2267;48.816;9.230;2023-03-13T12:20:33;6.73;;;1.50;;
4508;SDS011;2267;48.816;9.230;2023-03-13T12:23:41;4.40;;;1.63;;
4508;SDS011;2267;48.816;9.230;2023-03-13T12:26:21;3.00;;;1.93;;
4508;SDS011;2267;48.816;9.230;2023-03-13T12:29:02;3.33;;;1.60;;
4508;SDS011;2267;48.816;9.230;2023-03-13T12:37:25;1.90;;;1.30;;
4508;SDS011;2267;48.816;9.230;2023-03-13T12:40:12;2.27;;;1.30;;
4508;SDS011;2267;48.816;9.230;2023-03-13T12:45:23;3.20;;;1.43;;
4508;SDS011;2267;48.816;9.230;2023-03-13T12:53:04;2.93;;;1.63;;
4508;SDS011;2267;48.816;9.230;2023-03-13T13:04:00;2.10;;;1.50;;
4508;SDS011;2267;48.816;9.230;2023-03-13T13:06:50;3.30;;;1.43;;
4508;SDS011;2267;48.816;9.230;2023-03-13T13:11:59;2.57;;;1.47;;
4508;SDS011;2267;48.816;9.230;2023-03-13T13:17:28;3.70;;;2.03;;
4508;SDS011;2267;48.816;9.230;2023-03-13T13:28:52;2.97;;;1.47;;
4508;SDS011;2267;48.816;9.230;2023-03-13T13:37:01;2.57;;;1.13;;
4508;SDS011;2267;48.816;9.230;2023-03-13T13:39:49;3.27;;;1.20;;
4508;SDS011;2267;48.816;9.230;2023-03-13T13:44:57;1.90;;;1.00;;
4508;SDS011;2267;48.816;9.230;2023-03-13T13:47:41;3.70;;;1.20;;
4508;SDS011;2267;48.816;9.230;2023-03-13T13:50:20;2.10;;;1.00;;
4508;SDS011;2267;48.816;9.230;2023-03-13T13:52:51;4.93;;;1.00;;
4508;SDS011;2267;48.816;9.230;2023-03-13T13:57:57;3.30;;;1.10;;
4508;SDS011;2267;48.816;9.230;2023-03-13T14:03:21;2.67;;;1.10;;
4508;SDS011;2267;48.816;9.230;2023-03-13T14:05:53;2.27;;;1.20;;
4508;SDS011;2267;48.816;9.230;2023-03-13T14:08:26;3.27;;;1.20;;
4508;SDS011;2267;48.816;9.230;2023-03-13T14:16:37;2.80;;;1.33;;
4508;SDS011;2267;48.816;9.230;2023-03-13T14:19:04;2.23;;;1.13;;
4508;SDS011;2267;48.816;9.230;2023-03-13T14:21:59;2.30;;;1.20;;
4508;SDS011;2267;48.816;9.230;2023-03-13T14:24:27;3.20;;;1.50;;
4508;SDS011;2267;48.816;9.230;2023-03-13T14:26:54;2.97;;;1.30;;
4508;SDS011;2267;48.816;9.230;2023-03-13T14:29:21;2.20;;;1.30;;
4508;SDS011;2267;48.816;9.230;2023-03-13T14:31:55;2.23;;;1.00;;
4508;SDS011;2267;48.816;9.230;2023-03-13T14:34:24;3.03;;;1.47;;
4508;SDS011;2267;48.816;9.230;2023-03-13T14:36:55;2.10;;;1.10;;
4508;SDS011;2267;48.816;9.230;2023-03-13T14:39:43;2.97;;;1.30;;
4508;SDS011;2267;48.816;9.230;2023-03-13T14:42:11;2.70;;;1.30;;
4508;SDS011;2267;48.816;9.230;2023-03-13T14:44:40;3.50;;;1.60;;
4508;SDS011;2267;48.816;9.230;2023-03-13T14:49:55;2.90;;;1.37;;
4508;SDS011;2267;48.816;9.230;2023-03-13T14:52:25;2.60;;;1.30;;
4508;SDS011;2267;48.816;9.230;2023-03-13T14:54:55;4.43;;;1.10;;
4508;SDS011;2267;48.816;9.230;2023-03-13T14:57:24;3.43;;;1.33;;
4508;SDS011;2267;48.816;9.230;2023-03-13T14:59:53;2.20;;;1.20;;
4508;SDS011;2267;48.816;9.230;2023-03-13T15:02:22;3.00;;;1.10;;
4508;SDS011;2267;48.816;9.230;2023-03-13T15:05:03;2.00;;;1.17;;
4508;SDS011;2267;48.816;9.230;2023-03-13T15:07:39;2.90;;;1.20;;
4508;SDS011;2267;48.816;9.230;2023-03-13T15:12:47;2.43;;;1.07;;
4508;SDS011;2267;48.816;9.230;2023-03-13T15:15:14;3.20;;;1.60;;
4508;SDS011;2267;48.816;9.230;2023-03-13T15:17:41;5.40;;;1.33;;
4508;SDS011;2267;48.816;9.230;2023-03-13T15:20:11;2.97;;;1.20;;
4508;SDS011;2267;48.816;9.230;2023-03-13T15:22:40;3.60;;;1.23;;
4508;SDS011;2267;48.816;9.230;2023-03-13T15:25:15;5.80;;;1.10;;
4508;SDS011;2267;48.816;9.230;2023-03-13T15:27:44;4.03;;;1.40;;
4508;SDS011;2267;48.816;9.230;2023-03-13T15:30:14;2.10;;;1.00;;
4508;SDS011;2267;48.816;9.230;2023-03-13T15:32:42;5.23;;;1.10;;
4508;SDS011;2267;48.816;9.230;2023-03-13T15:35:22;3.77;;;1.23;;
4508;SDS011;2267;48.816;9.230;2023-03-13T15:37:52;2.20;;;1.17;;
4508;SDS011;2267;48.816;9.230;2023-03-13T15:40:20;2.13;;;1.10;;
4508;SDS011;2267;48.816;9.230;2023-03-13T15:42:49;2.90;;;1.20;;
4508;SDS011;2267;48.816;9.230;2023-03-13T15:45:18;2.63;;;1.40;;
4508;SDS011;2267;48.816;9.230;2023-03-13T15:47:45;5.20;;;1.30;;
4508;SDS011;2267;48.816;9.230;2023-03-13T15:50:15;3.13;;;1.50;;
4508;SDS011;2267;48.816;9.230;2023-03-13T15:52:44;1.90;;;1.40;;
4508;SDS011;2267;48.816;9.230;2023-03-13T15:55:11;2.50;;;1.50;;
4508;SDS011;2267;48.816;9.230;2023-03-13T15:57:40;4.13;;;1.37;;
4508;SDS011;2267;48.816;9.230;2023-03-13T16:00:22;2.10;;;1.40;;
4508;SDS011;2267;48.816;9.230;2023-03-13T16:02:50;2.23;;;1.27;;
4508;SDS011;2267;48.816;9.230;2023-03-13T16:05:17;2.80;;;1.37;;
4508;SDS011;2267;48.816;9.230;2023-03-13T16:07:44;4.97;;;1.63;;
4508;SDS011;2267;48.816;9.230;2023-03-13T16:10:13;2.67;;;1.40;;
4508;SDS011;2267;48.816;9.230;2023-03-13T16:12:51;2.87;;;1.40;;
4508;SDS011;2267;48.816;9.230;2023-03-13T16:15:19;3.03;;;1.40;;
4508;SDS011;2267;48.816;9.230;2023-03-13T16:17:46;3.13;;;1.60;;
4508;SDS011;2267;48.816;9.230;2023-03-13T16:20:16;2.07;;;1.00;;
4508;SDS011;2267;48.816;9.230;2023-03-13T16:22:46;2.40;;;1.23;;
4508;SDS011;2267;48.816;9.230;2023-03-13T16:25:13;3.87;;;1.40;;
4508;SDS011;2267;48.816;9.230;2023-03-13T16:27:40;2.57;;;1.20;;
4508;SDS011;2267;48.816;9.230;2023-03-13T16:30:24;3.60;;;1.40;;
4508;SDS011;2267;48.816;9.230;2023-03-13T16:32:55;2.23;;;1.30;;
4508;SDS011;2267;48.816;9.230;2023-03-13T16:35:23;2.43;;;1.40;;
4508;SDS011;2267;48.816;9.230;2023-03-13T16:37:55;4.00;;;1.37;;
4508;SDS011;2267;48.816;9.230;2023-03-13T16:40:24;5.30;;;2.00;;
4508;SDS011;2267;48.816;9.230;2023-03-13T16:42:52;4.43;;;1.30;;
4508;SDS011;2267;48.816;9.230;2023-03-13T16:45:19;4.90;;;1.80;;
4508;SDS011;2267;48.816;9.230;2023-03-13T16:47:46;2.67;;;1.43;;
4508;SDS011;2267;48.816;9.230;2023-03-13T16:52:47;3.43;;;1.47;;
4508;SDS011;2267;48.816;9.230;2023-03-13T16:55:15;2.60;;;1.20;;
4508;SDS011;2267;48.816;9.230;2023-03-13T16:57:42;3.00;;;1.50;;
4508;SDS011;2267;48.816;9.230;2023-03-13T17:00:17;2.73;;;1.47;;
4508;SDS011;2267;48.816;9.230;2023-03-13T17:02:45;2.37;;;1.40;;
4508;SDS011;2267;48.816;9.230;2023-03-13T17:05:13;5.10;;;1.40;;
4508;SDS011;2267;48.816;9.230;2023-03-13T17:07:42;2.57;;;1.47;;
4508;SDS011;2267;48.816;9.230;2023-03-13T17:10:29;2.60;;;1.70;;
4508;SDS011;2267;48.816;9.230;2023-03-13T17:12:57;2.53;;;1.40;;
4508;SDS011;2267;48.816;9.230;2023-03-13T17:15:26;3.43;;;1.70;;
4508;SDS011;2267;48.816;9.230;2023-03-13T17:17:54;4.90;;;1.97;;
4508;SDS011;2267;48.816;9.230;2023-03-13T17:20:25;5.70;;;1.60;;
4508;SDS011;2267;48.816;9.230;2023-03-13T17:22:54;2.77;;;1.60;;
4508;SDS011;2267;48.816;9.230;2023-03-13T17:25:23;3.20;;;1.33;;
4508;SDS011;2267;48.816;9.230;2023-03-13T17:27:50;2.43;;;1.90;;
4508;SDS011;2267;48.816;9.230;2023-03-13T17:32:51;3.43;;;1.87;;
4508;SDS011;2267;48.816;9.230;2023-03-13T17:35:19;7.00;;;2.97;;
4508;SDS011;2267;48.816;9.230;2023-03-13T17:37:46;3.40;;;2.20;;
4508;SDS011;2267;48.816;9.230;2023-03-13T17:42:47;3.10;;;1.57;;
4508;SDS011;2267;48.816;9.230;2023-03-13T17:45:14;3.77;;;1.70;;